sensor_id;sensor_type;location;lat;lon;timestamp;temperature;humidity
48946;DHT22;34999;50.940;3.998;2023-07-31T00:01:32;17.00;99.90
48946;DHT22;34999;50.940;3.998;2023-07-31T00:04:01;17.00;99.90
48946;DHT22;34999;50.940;3.998;2023-07-31T00:06:30;17.10;99.90
48946;DHT22;34999;50.940;3.998;2023-07-31T00:08:58;17.10;99.90
48946;DHT22;34999;50.940;3.998;2023-07-31T00:11:26;17.10;99.90
48946;DHT22;34999;50.940;3.998;2023-07-31T00:13:55;17.10;99.90
48946;DHT22;34999;50.940;3.998;2023-07-31T00:16:24;17.10;99.90
48946;DHT22;34999;50.940;3.998;2023-07-31T00:18:53;17.10;99.90
48946;DHT22;34999;50.940;3.998;2023-07-31T00:21:21;17.10;99.90
48946;DHT22;34999;50.940;3.998;2023-07-31T00:23:49;17.10;99.90
48946;DHT22;34999;50.940;3.998;2023-07-31T00:26:18;17.20;99.90
48946;DHT22;34999;50.940;3.998;2023-07-31T00:28:46;17.20;99.90
48946;DHT22;34999;50.940;3.998;2023-07-31T00:31:14;17.20;99.90
48946;DHT22;34999;50.940;3.998;2023-07-31T00:33:44;17.10;99.90
48946;DHT22;34999;50.940;3.998;2023-07-31T00:36:12;17.10;99.90
48946;DHT22;34999;50.940;3.998;2023-07-31T00:38:40;17.10;99.90
48946;DHT22;34999;50.940;3.998;2023-07-31T00:41:09;17.10;99.90
48946;DHT22;34999;50.940;3.998;2023-07-31T00:43:37;17.10;99.90
48946;DHT22;34999;50.940;3.998;2023-07-31T00:46:06;17.10;99.90
48946;DHT22;34999;50.940;3.998;2023-07-31T00:48:35;17.10;99.90
48946;DHT22;34999;50.940;3.998;2023-07-31T00:51:05;17.10;99.90
48946;DHT22;34999;50.940;3.998;2023-07-31T00:53:34;17.10;99.90
48946;DHT22;34999;50.940;3.998;2023-07-31T00:56:03;17.10;99.90
48946;DHT22;34999;50.940;3.998;2023-07-31T00:58:32;17.10;99.90
48946;DHT22;34999;50.940;3.998;2023-07-31T01:01:00;17.10;99.90
48946;DHT22;34999;50.940;3.998;2023-07-31T01:03:29;17.10;99.90
48946;DHT22;34999;50.940;3.998;2023-07-31T01:06:08;17.10;99.90
48946;DHT22;34999;50.940;3.998;2023-07-31T01:08:42;17.10;99.90
48946;DHT22;34999;50.940;3.998;2023-07-31T01:11:16;17.10;99.90
48946;DHT22;34999;50.940;3.998;2023-07-31T01:13:46;17.20;99.90
48946;DHT22;34999;50.940;3.998;2023-07-31T01:16:14;17.20;99.90
48946;DHT22;34999;50.940;3.998;2023-07-31T01:18:43;17.20;99.90
48946;DHT22;34999;50.940;3.998;2023-07-31T01:21:22;17.20;99.90
48946;DHT22;34999;50.940;3.998;2023-07-31T01:24:04;17.20;99.90
48946;DHT22;34999;50.940;3.998;2023-07-31T01:26:38;17.20;99.90
48946;DHT22;34999;50.940;3.998;2023-07-31T01:29:12;17.30;99.90
48946;DHT22;34999;50.940;3.998;2023-07-31T01:31:48;17.20;99.90
48946;DHT22;34999;50.940;3.998;2023-07-31T01:34:18;17.20;99.90
48946;DHT22;34999;50.940;3.998;2023-07-31T01:36:48;17.20;99.90
48946;DHT22;34999;50.940;3.998;2023-07-31T01:39:17;17.20;99.90
48946;DHT22;34999;50.940;3.998;2023-07-31T01:41:46;17.30;99.90
48946;DHT22;34999;50.940;3.998;2023-07-31T01:44:14;17.30;99.90
48946;DHT22;34999;50.940;3.998;2023-07-31T01:46:43;17.40;99.90
48946;DHT22;34999;50.940;3.998;2023-07-31T01:49:11;17.30;99.90
48946;DHT22;34999;50.940;3.998;2023-07-31T01:51:39;17.30;99.90
48946;DHT22;34999;50.940;3.998;2023-07-31T01:54:08;17.40;99.90
48946;DHT22;34999;50.940;3.998;2023-07-31T01:56:36;17.40;99.90
48946;DHT22;34999;50.940;3.998;2023-07-31T01:59:06;17.40;99.90
48946;DHT22;34999;50.940;3.998;2023-07-31T02:01:35;17.40;99.90
48946;DHT22;34999;50.940;3.998;2023-07-31T02:04:03;17.30;99.90
48946;DHT22;34999;50.940;3.998;2023-07-31T02:06:31;17.40;99.90
48946;DHT22;34999;50.940;3.998;2023-07-31T02:09:00;17.40;99.90
48946;DHT22;34999;50.940;3.998;2023-07-31T02:11:28;17.40;99.90
48946;DHT22;34999;50.940;3.998;2023-07-31T02:13:57;17.30;99.90
48946;DHT22;34999;50.940;3.998;2023-07-31T02:16:26;17.30;99.90
48946;DHT22;34999;50.940;3.998;2023-07-31T02:18:55;17.30;99.90
48946;DHT22;34999;50.940;3.998;2023-07-31T02:21:23;17.30;99.90
48946;DHT22;34999;50.940;3.998;2023-07-31T02:23:51;17.30;99.90
48946;DHT22;34999;50.940;3.998;2023-07-31T02:26:20;17.30;99.90
48946;DHT22;34999;50.940;3.998;2023-07-31T02:28:48;17.20;99.90
48946;DHT22;34999;50.940;3.998;2023-07-31T02:31:17;17.20;99.90
48946;DHT22;34999;50.940;3.998;2023-07-31T02:33:50;17.20;99.90
48946;DHT22;34999;50.940;3.998;2023-07-31T02:36:18;17.30;99.90
48946;DHT22;34999;50.940;3.998;2023-07-31T02:38:46;17.30;99.90
48946;DHT22;34999;50.940;3.998;2023-07-31T02:41:15;17.30;99.90
48946;DHT22;34999;50.940;3.998;2023-07-31T02:43:43;17.30;99.90
48946;DHT22;34999;50.940;3.998;2023-07-31T02:46:11;17.30;99.90
48946;DHT22;34999;50.940;3.998;2023-07-31T02:48:40;17.30;99.90
48946;DHT22;34999;50.940;3.998;2023-07-31T02:51:10;17.30;99.90
48946;DHT22;34999;50.940;3.998;2023-07-31T02:53:38;17.30;99.90
48946;DHT22;34999;50.940;3.998;2023-07-31T02:56:06;17.30;99.90
48946;DHT22;34999;50.940;3.998;2023-07-31T02:58:34;17.30;99.90
48946;DHT22;34999;50.940;3.998;2023-07-31T03:01:03;17.30;99.90
48946;DHT22;34999;50.940;3.998;2023-07-31T03:03:31;17.30;99.90
48946;DHT22;34999;50.940;3.998;2023-07-31T03:05:59;17.40;99.90
48946;DHT22;34999;50.940;3.998;2023-07-31T03:08:29;17.40;99.90
48946;DHT22;34999;50.940;3.998;2023-07-31T03:10:57;17.30;99.90
48946;DHT22;34999;50.940;3.998;2023-07-31T03:13:25;17.40;99.90
48946;DHT22;34999;50.940;3.998;2023-07-31T03:15:55;17.30;99.90
48946;DHT22;34999;50.940;3.998;2023-07-31T03:18:23;17.30;99.90
48946;DHT22;34999;50.940;3.998;2023-07-31T03:20:51;17.30;99.90
48946;DHT22;34999;50.940;3.998;2023-07-31T03:23:20;17.30;99.90
48946;DHT22;34999;50.940;3.998;2023-07-31T03:26:07;17.30;99.90
48946;DHT22;34999;50.940;3.998;2023-07-31T03:28:35;17.30;99.90
48946;DHT22;34999;50.940;3.998;2023-07-31T03:31:04;17.30;99.90
48946;DHT22;34999;50.940;3.998;2023-07-31T03:33:32;17.20;99.90
48946;DHT22;34999;50.940;3.998;2023-07-31T03:36:01;17.20;99.90
48946;DHT22;34999;50.940;3.998;2023-07-31T03:38:30;17.10;99.90
48946;DHT22;34999;50.940;3.998;2023-07-31T03:40:58;17.10;99.90
48946;DHT22;34999;50.940;3.998;2023-07-31T03:43:28;17.00;99.90
48946;DHT22;34999;50.940;3.998;2023-07-31T03:45:56;17.00;99.90
48946;DHT22;34999;50.940;3.998;2023-07-31T03:48:27;17.00;99.90
48946;DHT22;34999;50.940;3.998;2023-07-31T03:50:55;17.00;99.90
48946;DHT22;34999;50.940;3.998;2023-07-31T03:53:24;16.90;99.90
48946;DHT22;34999;50.940;3.998;2023-07-31T03:55:52;16.90;99.90
48946;DHT22;34999;50.940;3.998;2023-07-31T03:58:20;16.90;99.90
48946;DHT22;34999;50.940;3.998;2023-07-31T04:00:50;16.80;99.90
48946;DHT22;34999;50.940;3.998;2023-07-31T04:03:18;16.80;99.90
48946;DHT22;34999;50.940;3.998;2023-07-31T04:05:47;16.80;99.90
48946;DHT22;34999;50.940;3.998;2023-07-31T04:08:15;16.80;99.90
48946;DHT22;34999;50.940;3.998;2023-07-31T04:10:43;16.70;99.90
48946;DHT22;34999;50.940;3.998;2023-07-31T04:13:13;16.70;99.90
48946;DHT22;34999;50.940;3.998;2023-07-31T04:15:42;16.70;99.90
48946;DHT22;34999;50.940;3.998;2023-07-31T04:18:11;16.70;99.90
48946;DHT22;34999;50.940;3.998;2023-07-31T04:20:40;16.70;99.90
48946;DHT22;34999;50.940;3.998;2023-07-31T04:23:08;16.70;99.90
48946;DHT22;34999;50.940;3.998;2023-07-31T04:25:36;16.70;99.90
48946;DHT22;34999;50.940;3.998;2023-07-31T04:28:05;16.70;99.90
48946;DHT22;34999;50.940;3.998;2023-07-31T04:30:34;16.70;99.90
48946;DHT22;34999;50.940;3.998;2023-07-31T04:33:03;16.70;99.90
48946;DHT22;34999;50.940;3.998;2023-07-31T04:35:33;16.70;99.90
48946;DHT22;34999;50.940;3.998;2023-07-31T04:38:01;16.70;99.90
48946;DHT22;34999;50.940;3.998;2023-07-31T04:40:30;16.70;99.90
48946;DHT22;34999;50.940;3.998;2023-07-31T04:42:58;16.70;99.90
48946;DHT22;34999;50.940;3.998;2023-07-31T04:45:26;16.70;99.90
48946;DHT22;34999;50.940;3.998;2023-07-31T04:47:54;16.70;99.90
48946;DHT22;34999;50.940;3.998;2023-07-31T04:50:23;16.70;99.90
48946;DHT22;34999;50.940;3.998;2023-07-31T04:52:52;16.70;99.90
48946;DHT22;34999;50.940;3.998;2023-07-31T04:55:20;16.60;99.90
48946;DHT22;34999;50.940;3.998;2023-07-31T04:57:49;16.60;99.90
48946;DHT22;34999;50.940;3.998;2023-07-31T05:00:18;16.60;99.90
48946;DHT22;34999;50.940;3.998;2023-07-31T05:02:47;16.60;99.90
48946;DHT22;34999;50.940;3.998;2023-07-31T05:05:15;16.60;99.90
48946;DHT22;34999;50.940;3.998;2023-07-31T05:07:44;16.60;99.90
48946;DHT22;34999;50.940;3.998;2023-07-31T05:10:13;16.60;99.90
48946;DHT22;34999;50.940;3.998;2023-07-31T05:12:41;16.60;99.90
48946;DHT22;34999;50.940;3.998;2023-07-31T05:15:10;16.60;99.90
48946;DHT22;34999;50.940;3.998;2023-07-31T05:17:38;16.60;99.90
48946;DHT22;34999;50.940;3.998;2023-07-31T05:20:08;16.60;99.90
48946;DHT22;34999;50.940;3.998;2023-07-31T05:22:36;16.60;99.90
48946;DHT22;34999;50.940;3.998;2023-07-31T05:25:05;16.50;99.90
48946;DHT22;34999;50.940;3.998;2023-07-31T05:27:35;16.50;99.90
48946;DHT22;34999;50.940;3.998;2023-07-31T05:30:05;16.60;99.90
48946;DHT22;34999;50.940;3.998;2023-07-31T05:32:33;16.60;99.90
48946;DHT22;34999;50.940;3.998;2023-07-31T05:35:02;16.60;99.90
48946;DHT22;34999;50.940;3.998;2023-07-31T05:37:30;16.60;99.90
48946;DHT22;34999;50.940;3.998;2023-07-31T05:39:59;16.50;99.90
48946;DHT22;34999;50.940;3.998;2023-07-31T05:42:27;16.50;99.90
48946;DHT22;34999;50.940;3.998;2023-07-31T05:44:57;16.50;99.90
48946;DHT22;34999;50.940;3.998;2023-07-31T05:47:25;16.60;99.90
48946;DHT22;34999;50.940;3.998;2023-07-31T05:49:54;16.50;99.90
48946;DHT22;34999;50.940;3.998;2023-07-31T05:52:22;16.60;99.90
48946;DHT22;34999;50.940;3.998;2023-07-31T05:54:51;16.60;99.90
48946;DHT22;34999;50.940;3.998;2023-07-31T05:57:19;16.60;99.90
48946;DHT22;34999;50.940;3.998;2023-07-31T05:59:48;16.60;99.90
48946;DHT22;34999;50.940;3.998;2023-07-31T06:02:17;16.70;99.90
48946;DHT22;34999;50.940;3.998;2023-07-31T06:04:46;16.60;99.90
48946;DHT22;34999;50.940;3.998;2023-07-31T06:07:14;16.60;99.90
48946;DHT22;34999;50.940;3.998;2023-07-31T06:09:43;16.70;99.90
48946;DHT22;34999;50.940;3.998;2023-07-31T06:12:11;16.70;99.90
48946;DHT22;34999;50.940;3.998;2023-07-31T06:14:39;16.80;99.90
48946;DHT22;34999;50.940;3.998;2023-07-31T06:17:07;16.80;99.90
48946;DHT22;34999;50.940;3.998;2023-07-31T06:19:37;16.90;99.90
48946;DHT22;34999;50.940;3.998;2023-07-31T06:22:06;16.90;99.90
48946;DHT22;34999;50.940;3.998;2023-07-31T06:24:34;16.90;99.90
48946;DHT22;34999;50.940;3.998;2023-07-31T06:27:02;17.00;99.90
48946;DHT22;34999;50.940;3.998;2023-07-31T06:29:31;17.00;99.90
48946;DHT22;34999;50.940;3.998;2023-07-31T06:31:59;17.00;99.90
48946;DHT22;34999;50.940;3.998;2023-07-31T06:34:30;17.10;99.90
48946;DHT22;34999;50.940;3.998;2023-07-31T06:37:00;17.10;99.90
48946;DHT22;34999;50.940;3.998;2023-07-31T06:39:28;17.10;99.90
48946;DHT22;34999;50.940;3.998;2023-07-31T06:41:56;17.20;99.90
48946;DHT22;34999;50.940;3.998;2023-07-31T06:44:25;17.30;99.90
48946;DHT22;34999;50.940;3.998;2023-07-31T06:46:53;17.40;99.90
48946;DHT22;34999;50.940;3.998;2023-07-31T06:49:21;17.50;99.90
48946;DHT22;34999;50.940;3.998;2023-07-31T06:51:49;17.60;99.90
48946;DHT22;34999;50.940;3.998;2023-07-31T06:54:19;17.70;99.90
48946;DHT22;34999;50.940;3.998;2023-07-31T06:56:48;17.70;99.90
48946;DHT22;34999;50.940;3.998;2023-07-31T06:59:16;17.70;99.90
48946;DHT22;34999;50.940;3.998;2023-07-31T07:01:44;17.70;99.90
48946;DHT22;34999;50.940;3.998;2023-07-31T07:04:13;17.80;99.90
48946;DHT22;34999;50.940;3.998;2023-07-31T07:06:42;17.80;99.90
48946;DHT22;34999;50.940;3.998;2023-07-31T07:09:10;17.80;99.90
48946;DHT22;34999;50.940;3.998;2023-07-31T07:11:40;17.70;99.90
48946;DHT22;34999;50.940;3.998;2023-07-31T07:14:09;17.70;99.90
48946;DHT22;34999;50.940;3.998;2023-07-31T07:16:37;17.70;99.90
48946;DHT22;34999;50.940;3.998;2023-07-31T07:19:08;17.70;99.90
48946;DHT22;34999;50.940;3.998;2023-07-31T07:21:36;17.70;99.90
48946;DHT22;34999;50.940;3.998;2023-07-31T07:24:05;17.70;99.90
48946;DHT22;34999;50.940;3.998;2023-07-31T07:26:34;17.70;99.90
48946;DHT22;34999;50.940;3.998;2023-07-31T07:29:03;17.70;99.90
48946;DHT22;34999;50.940;3.998;2023-07-31T07:31:35;17.70;99.90
48946;DHT22;34999;50.940;3.998;2023-07-31T07:34:03;17.80;99.90
48946;DHT22;34999;50.940;3.998;2023-07-31T07:36:32;17.90;99.90
48946;DHT22;34999;50.940;3.998;2023-07-31T07:39:00;18.00;99.90
48946;DHT22;34999;50.940;3.998;2023-07-31T07:41:29;18.00;99.90
48946;DHT22;34999;50.940;3.998;2023-07-31T07:43:57;18.20;99.90
48946;DHT22;34999;50.940;3.998;2023-07-31T07:46:27;18.40;99.90
48946;DHT22;34999;50.940;3.998;2023-07-31T07:48:55;18.60;99.90
48946;DHT22;34999;50.940;3.998;2023-07-31T07:51:23;18.80;99.90
48946;DHT22;34999;50.940;3.998;2023-07-31T07:53:52;18.80;99.90
48946;DHT22;34999;50.940;3.998;2023-07-31T07:56:20;18.90;99.90
48946;DHT22;34999;50.940;3.998;2023-07-31T07:58:50;18.90;99.90
48946;DHT22;34999;50.940;3.998;2023-07-31T08:01:19;18.90;99.90
48946;DHT22;34999;50.940;3.998;2023-07-31T08:03:50;18.70;99.90
48946;DHT22;34999;50.940;3.998;2023-07-31T08:06:18;18.50;99.90
48946;DHT22;34999;50.940;3.998;2023-07-31T08:08:47;18.40;99.90
48946;DHT22;34999;50.940;3.998;2023-07-31T08:11:15;18.40;99.90
48946;DHT22;34999;50.940;3.998;2023-07-31T08:13:43;18.50;99.90
48946;DHT22;34999;50.940;3.998;2023-07-31T08:16:14;18.70;99.90
48946;DHT22;34999;50.940;3.998;2023-07-31T08:18:43;18.70;99.90
48946;DHT22;34999;50.940;3.998;2023-07-31T08:21:12;18.90;99.90
48946;DHT22;34999;50.940;3.998;2023-07-31T08:23:42;18.90;99.90
48946;DHT22;34999;50.940;3.998;2023-07-31T08:26:15;18.90;99.90
48946;DHT22;34999;50.940;3.998;2023-07-31T08:28:43;18.90;99.90
48946;DHT22;34999;50.940;3.998;2023-07-31T08:31:12;19.00;99.90
48946;DHT22;34999;50.940;3.998;2023-07-31T08:33:40;19.10;99.90
48946;DHT22;34999;50.940;3.998;2023-07-31T08:36:09;19.00;99.90
48946;DHT22;34999;50.940;3.998;2023-07-31T08:38:39;19.00;99.90
48946;DHT22;34999;50.940;3.998;2023-07-31T08:41:07;19.00;99.90
48946;DHT22;34999;50.940;3.998;2023-07-31T08:43:36;18.90;99.90
48946;DHT22;34999;50.940;3.998;2023-07-31T08:46:06;18.80;99.90
48946;DHT22;34999;50.940;3.998;2023-07-31T08:48:35;19.00;99.90
48946;DHT22;34999;50.940;3.998;2023-07-31T08:51:06;19.10;99.90
48946;DHT22;34999;50.940;3.998;2023-07-31T08:53:34;19.20;99.90
48946;DHT22;34999;50.940;3.998;2023-07-31T08:56:05;19.30;99.90
48946;DHT22;34999;50.940;3.998;2023-07-31T08:58:35;19.50;99.90
48946;DHT22;34999;50.940;3.998;2023-07-31T09:01:04;19.50;99.90
48946;DHT22;34999;50.940;3.998;2023-07-31T09:03:36;19.70;99.90
48946;DHT22;34999;50.940;3.998;2023-07-31T09:06:06;19.90;99.90
48946;DHT22;34999;50.940;3.998;2023-07-31T09:08:35;20.00;99.90
48946;DHT22;34999;50.940;3.998;2023-07-31T09:11:07;20.10;99.90
48946;DHT22;34999;50.940;3.998;2023-07-31T09:13:35;20.20;99.90
48946;DHT22;34999;50.940;3.998;2023-07-31T09:16:05;20.40;99.90
48946;DHT22;34999;50.940;3.998;2023-07-31T09:18:53;20.30;99.90
48946;DHT22;34999;50.940;3.998;2023-07-31T09:21:22;20.10;99.90
48946;DHT22;34999;50.940;3.998;2023-07-31T09:23:51;19.80;99.90
48946;DHT22;34999;50.940;3.998;2023-07-31T09:26:32;19.70;99.90
48946;DHT22;34999;50.940;3.998;2023-07-31T09:29:04;19.60;99.90
48946;DHT22;34999;50.940;3.998;2023-07-31T09:31:39;19.60;99.90
48946;DHT22;34999;50.940;3.998;2023-07-31T09:34:09;19.50;99.90
48946;DHT22;34999;50.940;3.998;2023-07-31T09:36:40;19.40;99.90
48946;DHT22;34999;50.940;3.998;2023-07-31T09:39:10;19.20;99.90
48946;DHT22;34999;50.940;3.998;2023-07-31T09:41:43;19.10;99.90
48946;DHT22;34999;50.940;3.998;2023-07-31T09:44:11;18.90;99.90
48946;DHT22;34999;50.940;3.998;2023-07-31T09:46:40;18.70;99.90
48946;DHT22;34999;50.940;3.998;2023-07-31T09:49:10;18.70;99.90
48946;DHT22;34999;50.940;3.998;2023-07-31T09:51:40;18.60;99.90
48946;DHT22;34999;50.940;3.998;2023-07-31T09:54:10;18.60;99.90
48946;DHT22;34999;50.940;3.998;2023-07-31T09:56:45;18.60;99.90
48946;DHT22;34999;50.940;3.998;2023-07-31T09:59:15;18.60;99.90
48946;DHT22;34999;50.940;3.998;2023-07-31T10:01:48;18.70;99.90
48946;DHT22;34999;50.940;3.998;2023-07-31T10:04:18;18.70;99.90
48946;DHT22;34999;50.940;3.998;2023-07-31T10:06:53;18.60;99.90
48946;DHT22;34999;50.940;3.998;2023-07-31T10:09:24;18.60;99.90
48946;DHT22;34999;50.940;3.998;2023-07-31T10:12:00;18.60;99.90
48946;DHT22;34999;50.940;3.998;2023-07-31T10:14:29;18.70;99.90
48946;DHT22;34999;50.940;3.998;2023-07-31T10:16:58;18.80;99.90
48946;DHT22;34999;50.940;3.998;2023-07-31T10:19:27;18.90;99.90
48946;DHT22;34999;50.940;3.998;2023-07-31T10:22:00;18.90;99.90
48946;DHT22;34999;50.940;3.998;2023-07-31T10:24:31;18.90;99.90
48946;DHT22;34999;50.940;3.998;2023-07-31T10:27:02;18.90;99.90
48946;DHT22;34999;50.940;3.998;2023-07-31T10:29:31;18.90;99.90
48946;DHT22;34999;50.940;3.998;2023-07-31T10:32:00;19.00;99.90
48946;DHT22;34999;50.940;3.998;2023-07-31T10:34:30;19.00;99.90
48946;DHT22;34999;50.940;3.998;2023-07-31T10:37:19;19.20;99.90
48946;DHT22;34999;50.940;3.998;2023-07-31T10:39:56;19.20;99.90
48946;DHT22;34999;50.940;3.998;2023-07-31T10:42:30;19.20;99.90
48946;DHT22;34999;50.940;3.998;2023-07-31T10:45:00;19.20;99.90
48946;DHT22;34999;50.940;3.998;2023-07-31T10:47:29;19.20;99.90
48946;DHT22;34999;50.940;3.998;2023-07-31T10:50:16;19.30;99.90
48946;DHT22;34999;50.940;3.998;2023-07-31T10:52:50;19.30;99.90
48946;DHT22;34999;50.940;3.998;2023-07-31T10:55:29;19.50;99.90
48946;DHT22;34999;50.940;3.998;2023-07-31T10:58:13;19.60;99.90
48946;DHT22;34999;50.940;3.998;2023-07-31T11:00:42;19.70;99.90
48946;DHT22;34999;50.940;3.998;2023-07-31T11:03:12;19.60;99.90
48946;DHT22;34999;50.940;3.998;2023-07-31T11:05:43;19.70;99.90
48946;DHT22;34999;50.940;3.998;2023-07-31T11:08:13;19.70;99.90
48946;DHT22;34999;50.940;3.998;2023-07-31T11:10:42;19.70;99.90
48946;DHT22;34999;50.940;3.998;2023-07-31T11:13:12;19.60;99.90
48946;DHT22;34999;50.940;3.998;2023-07-31T11:15:41;19.50;99.90
48946;DHT22;34999;50.940;3.998;2023-07-31T11:18:09;19.60;99.90
48946;DHT22;34999;50.940;3.998;2023-07-31T11:20:39;19.60;99.90
48946;DHT22;34999;50.940;3.998;2023-07-31T11:23:09;19.60;99.90
48946;DHT22;34999;50.940;3.998;2023-07-31T11:25:39;19.60;99.90
48946;DHT22;34999;50.940;3.998;2023-07-31T11:28:10;19.40;99.90
48946;DHT22;34999;50.940;3.998;2023-07-31T11:30:41;19.40;99.90
48946;DHT22;34999;50.940;3.998;2023-07-31T11:33:12;19.40;99.90
48946;DHT22;34999;50.940;3.998;2023-07-31T11:35:44;19.30;99.90
48946;DHT22;34999;50.940;3.998;2023-07-31T11:38:16;19.20;99.90
48946;DHT22;34999;50.940;3.998;2023-07-31T11:40:49;19.20;99.90
48946;DHT22;34999;50.940;3.998;2023-07-31T11:43:20;19.30;99.90
48946;DHT22;34999;50.940;3.998;2023-07-31T11:45:54;19.30;99.90
48946;DHT22;34999;50.940;3.998;2023-07-31T11:48:24;19.40;99.90
48946;DHT22;34999;50.940;3.998;2023-07-31T11:50:55;19.50;99.90
48946;DHT22;34999;50.940;3.998;2023-07-31T11:53:28;19.60;99.90
48946;DHT22;34999;50.940;3.998;2023-07-31T11:55:58;19.80;99.90
48946;DHT22;34999;50.940;3.998;2023-07-31T11:58:28;19.90;99.90
48946;DHT22;34999;50.940;3.998;2023-07-31T12:00:58;20.00;99.90
48946;DHT22;34999;50.940;3.998;2023-07-31T12:03:27;20.10;99.90
48946;DHT22;34999;50.940;3.998;2023-07-31T12:05:55;20.10;99.90
48946;DHT22;34999;50.940;3.998;2023-07-31T12:08:25;20.10;99.90
48946;DHT22;34999;50.940;3.998;2023-07-31T12:10:54;20.10;99.90
48946;DHT22;34999;50.940;3.998;2023-07-31T12:13:24;20.00;99.90
48946;DHT22;34999;50.940;3.998;2023-07-31T12:15:55;20.00;99.90
48946;DHT22;34999;50.940;3.998;2023-07-31T12:18:27;19.90;99.90
48946;DHT22;34999;50.940;3.998;2023-07-31T12:20:57;20.00;99.90
48946;DHT22;34999;50.940;3.998;2023-07-31T12:23:27;19.90;99.90
48946;DHT22;34999;50.940;3.998;2023-07-31T12:26:04;20.00;99.90
48946;DHT22;34999;50.940;3.998;2023-07-31T12:28:35;20.10;99.90
48946;DHT22;34999;50.940;3.998;2023-07-31T12:31:05;20.30;99.90
48946;DHT22;34999;50.940;3.998;2023-07-31T12:33:36;20.40;99.90
48946;DHT22;34999;50.940;3.998;2023-07-31T12:36:08;20.40;99.90
48946;DHT22;34999;50.940;3.998;2023-07-31T12:38:37;20.20;99.90
48946;DHT22;34999;50.940;3.998;2023-07-31T12:41:05;20.10;99.90
48946;DHT22;34999;50.940;3.998;2023-07-31T12:43:34;20.10;99.90
48946;DHT22;34999;50.940;3.998;2023-07-31T12:46:03;20.00;99.90
48946;DHT22;34999;50.940;3.998;2023-07-31T12:48:32;19.80;99.90
48946;DHT22;34999;50.940;3.998;2023-07-31T12:51:02;19.50;99.90
48946;DHT22;34999;50.940;3.998;2023-07-31T12:53:30;19.30;99.90
48946;DHT22;34999;50.940;3.998;2023-07-31T12:55:59;19.10;99.90
48946;DHT22;34999;50.940;3.998;2023-07-31T12:58:27;19.00;99.90
48946;DHT22;34999;50.940;3.998;2023-07-31T13:00:55;18.90;99.90
48946;DHT22;34999;50.940;3.998;2023-07-31T13:03:24;18.90;99.90
48946;DHT22;34999;50.940;3.998;2023-07-31T13:05:53;18.80;99.90
48946;DHT22;34999;50.940;3.998;2023-07-31T13:08:22;18.70;99.90
48946;DHT22;34999;50.940;3.998;2023-07-31T13:10:51;18.50;99.90
48946;DHT22;34999;50.940;3.998;2023-07-31T13:13:19;18.40;99.90
48946;DHT22;34999;50.940;3.998;2023-07-31T13:15:48;18.40;99.90
48946;DHT22;34999;50.940;3.998;2023-07-31T13:18:16;18.40;99.90
48946;DHT22;34999;50.940;3.998;2023-07-31T13:20:45;18.30;99.90
48946;DHT22;34999;50.940;3.998;2023-07-31T13:23:13;18.30;99.90
48946;DHT22;34999;50.940;3.998;2023-07-31T13:25:43;18.40;99.90
48946;DHT22;34999;50.940;3.998;2023-07-31T13:28:11;18.40;99.90
48946;DHT22;34999;50.940;3.998;2023-07-31T13:30:40;18.30;99.90
48946;DHT22;34999;50.940;3.998;2023-07-31T13:33:08;18.30;99.90
48946;DHT22;34999;50.940;3.998;2023-07-31T13:35:56;18.30;99.90
48946;DHT22;34999;50.940;3.998;2023-07-31T13:38:25;18.20;99.90
48946;DHT22;34999;50.940;3.998;2023-07-31T13:40:54;18.20;99.90
48946;DHT22;34999;50.940;3.998;2023-07-31T13:43:23;18.10;99.90
48946;DHT22;34999;50.940;3.998;2023-07-31T13:45:51;18.10;99.90
48946;DHT22;34999;50.940;3.998;2023-07-31T13:48:19;18.10;99.90
48946;DHT22;34999;50.940;3.998;2023-07-31T13:50:47;18.10;99.90
48946;DHT22;34999;50.940;3.998;2023-07-31T13:53:16;18.10;99.90
48946;DHT22;34999;50.940;3.998;2023-07-31T13:55:44;18.10;99.90
48946;DHT22;34999;50.940;3.998;2023-07-31T13:58:14;18.00;99.90
48946;DHT22;34999;50.940;3.998;2023-07-31T14:00:44;18.10;99.90
48946;DHT22;34999;50.940;3.998;2023-07-31T14:03:13;18.10;99.90
48946;DHT22;34999;50.940;3.998;2023-07-31T14:05:41;18.10;99.90
48946;DHT22;34999;50.940;3.998;2023-07-31T14:08:09;18.10;99.90
48946;DHT22;34999;50.940;3.998;2023-07-31T14:10:38;18.20;99.90
48946;DHT22;34999;50.940;3.998;2023-07-31T14:13:06;18.20;99.90
48946;DHT22;34999;50.940;3.998;2023-07-31T14:15:36;18.10;99.90
48946;DHT22;34999;50.940;3.998;2023-07-31T14:18:04;18.10;99.90
48946;DHT22;34999;50.940;3.998;2023-07-31T14:20:33;18.20;99.90
48946;DHT22;34999;50.940;3.998;2023-07-31T14:23:02;18.20;99.90
48946;DHT22;34999;50.940;3.998;2023-07-31T14:25:30;18.20;99.90
48946;DHT22;34999;50.940;3.998;2023-07-31T14:27:59;18.30;99.90
48946;DHT22;34999;50.940;3.998;2023-07-31T14:30:27;18.20;99.90
48946;DHT22;34999;50.940;3.998;2023-07-31T14:32:57;18.20;99.90
48946;DHT22;34999;50.940;3.998;2023-07-31T14:35:27;18.10;99.90
48946;DHT22;34999;50.940;3.998;2023-07-31T14:37:56;18.10;99.90
48946;DHT22;34999;50.940;3.998;2023-07-31T14:40:24;18.00;99.90
48946;DHT22;34999;50.940;3.998;2023-07-31T14:42:53;18.00;99.90
48946;DHT22;34999;50.940;3.998;2023-07-31T14:45:21;18.00;99.90
48946;DHT22;34999;50.940;3.998;2023-07-31T14:47:49;18.00;99.90
48946;DHT22;34999;50.940;3.998;2023-07-31T14:50:20;18.00;99.90
48946;DHT22;34999;50.940;3.998;2023-07-31T14:52:50;18.00;99.90
48946;DHT22;34999;50.940;3.998;2023-07-31T14:55:19;18.00;99.90
48946;DHT22;34999;50.940;3.998;2023-07-31T14:57:47;18.00;99.90
48946;DHT22;34999;50.940;3.998;2023-07-31T15:00:15;18.00;99.90
48946;DHT22;34999;50.940;3.998;2023-07-31T15:02:44;18.00;99.90
48946;DHT22;34999;50.940;3.998;2023-07-31T15:05:12;18.00;99.90
48946;DHT22;34999;50.940;3.998;2023-07-31T15:07:42;18.00;99.90
48946;DHT22;34999;50.940;3.998;2023-07-31T15:10:10;18.00;99.90
48946;DHT22;34999;50.940;3.998;2023-07-31T15:12:40;18.00;99.90
48946;DHT22;34999;50.940;3.998;2023-07-31T15:15:08;18.00;99.90
48946;DHT22;34999;50.940;3.998;2023-07-31T15:17:37;18.00;99.90
48946;DHT22;34999;50.940;3.998;2023-07-31T15:20:06;18.00;99.90
48946;DHT22;34999;50.940;3.998;2023-07-31T15:22:35;18.10;99.90
48946;DHT22;34999;50.940;3.998;2023-07-31T15:25:06;18.00;99.90
48946;DHT22;34999;50.940;3.998;2023-07-31T15:27:35;18.00;99.90
48946;DHT22;34999;50.940;3.998;2023-07-31T15:30:04;18.00;99.90
48946;DHT22;34999;50.940;3.998;2023-07-31T15:32:33;18.00;99.90
48946;DHT22;34999;50.940;3.998;2023-07-31T15:35:01;18.00;99.90
48946;DHT22;34999;50.940;3.998;2023-07-31T15:37:30;18.00;99.90
48946;DHT22;34999;50.940;3.998;2023-07-31T15:39:58;18.00;99.90
48946;DHT22;34999;50.940;3.998;2023-07-31T15:42:27;18.00;99.90
48946;DHT22;34999;50.940;3.998;2023-07-31T15:44:56;18.00;99.90